createdAt,value
2018-10-18T00:00:15.977Z,16.1
2018-10-18T00:03:15.453Z,16.0
2018-10-18T00:06:15.780Z,15.9
2018-10-18T00:09:15.217Z,15.9
2018-10-18T00:12:15.611Z,15.9
2018-10-18T00:15:15.028Z,16.0
2018-10-18T00:18:15.196Z,16.0
2018-10-18T00:21:15.729Z,16.0
2018-10-18T00:24:15.520Z,16.0
2018-10-18T00:27:15.904Z,15.9
2018-10-18T00:30:15.408Z,15.9
2018-10-18T00:33:15.046Z,15.9
2018-10-18T00:36:15.739Z,15.9
2018-10-18T00:39:15.200Z,15.9
2018-10-18T00:42:15.560Z,15.8
2018-10-18T00:45:15.083Z,15.8
2018-10-18T00:48:15.874Z,15.7
2018-10-18T00:51:15.373Z,15.7
2018-10-18T00:54:15.801Z,15.6
2018-10-18T00:57:15.158Z,15.7
2018-10-18T01:00:15.658Z,15.7
2018-10-18T01:03:15.372Z,15.7
2018-10-18T01:06:15.821Z,15.7
2018-10-18T01:09:15.221Z,15.7
2018-10-18T01:12:15.576Z,15.8
2018-10-18T01:15:15.868Z,15.8
2018-10-18T01:18:15.816Z,15.8
2018-10-18T01:21:15.285Z,15.8
2018-10-18T01:24:15.861Z,15.7
2018-10-18T01:27:15.294Z,15.7
2018-10-18T01:30:15.857Z,15.6
2018-10-18T01:33:15.440Z,15.6
2018-10-18T01:36:16.040Z,15.5
2018-10-18T01:39:15.425Z,15.5
2018-10-18T01:42:15.967Z,15.4
2018-10-18T01:45:15.269Z,15.4
2018-10-18T01:48:15.395Z,15.4
2018-10-18T01:51:15.716Z,15.4
2018-10-18T01:54:16.157Z,15.5
2018-10-18T01:57:15.730Z,15.5
2018-10-18T02:00:15.292Z,15.5
2018-10-18T02:03:15.663Z,15.6
2018-10-18T02:06:15.332Z,15.5
2018-10-18T02:09:15.621Z,15.5
2018-10-18T02:12:15.133Z,15.5
2018-10-18T02:15:15.383Z,15.5
2018-10-18T02:18:15.934Z,15.5
2018-10-18T02:21:15.527Z,15.5
2018-10-18T02:24:15.850Z,15.4
2018-10-18T02:27:15.114Z,15.3
2018-10-18T02:30:15.497Z,15.3
2018-10-18T02:33:15.104Z,15.3
2018-10-18T02:36:15.593Z,15.3
2018-10-18T02:39:14.925Z,15.4
2018-10-18T02:42:15.329Z,15.5
2018-10-18T02:45:15.764Z,15.5
2018-10-18T02:48:15.200Z,15.5
2018-10-18T02:51:15.705Z,15.5
2018-10-18T02:54:15.098Z,15.5
2018-10-18T02:57:15.123Z,15.5
2018-10-18T03:00:15.634Z,15.5
2018-10-18T03:03:14.957Z,15.5
2018-10-18T03:06:15.305Z,15.5
2018-10-18T03:09:16.072Z,15.5
2018-10-18T03:12:15.563Z,15.5
2018-10-18T03:15:16.025Z,15.5
2018-10-18T03:18:15.367Z,15.5
2018-10-18T03:21:15.777Z,15.4
2018-10-18T03:24:15.237Z,15.4
2018-10-18T03:27:15.835Z,15.4
2018-10-18T03:30:15.483Z,15.4
2018-10-18T03:33:15.031Z,15.3
2018-10-18T03:36:15.666Z,15.3
2018-10-18T03:39:15.456Z,15.2
2018-10-18T03:42:16.092Z,15.2
2018-10-18T03:45:15.711Z,15.2
2018-10-18T03:48:15.751Z,15.2
2018-10-18T03:51:15.099Z,15.2
2018-10-18T03:54:15.618Z,15.2
2018-10-18T03:57:16.067Z,15.2
2018-10-18T04:00:15.443Z,15.2
2018-10-18T04:03:15.962Z,15.2
2018-10-18T04:06:15.431Z,15.3
2018-10-18T04:09:15.087Z,15.3
2018-10-18T04:12:15.525Z,15.3
2018-10-18T04:15:15.083Z,15.3
2018-10-18T04:18:15.468Z,15.3
2018-10-18T04:21:15.343Z,15.3
2018-10-18T04:24:15.781Z,15.4
2018-10-18T04:27:15.552Z,15.4
2018-10-18T04:30:15.993Z,15.4
2018-10-18T04:33:15.573Z,15.4
2018-10-18T04:36:15.978Z,15.4
2018-10-18T04:39:15.527Z,15.5
2018-10-18T04:42:16.021Z,15.5
2018-10-18T04:45:15.501Z,15.5
2018-10-18T04:48:16.123Z,15.5
2018-10-18T04:51:15.622Z,15.4
2018-10-18T04:54:15.244Z,15.4
2018-10-18T04:57:15.775Z,15.4
2018-10-18T05:00:15.786Z,15.4
2018-10-18T05:03:15.206Z,15.4
2018-10-18T05:06:15.700Z,15.3
2018-10-18T05:09:15.315Z,15.3
2018-10-18T05:12:15.820Z,15.3
2018-10-18T05:15:15.677Z,15.2
2018-10-18T05:18:15.389Z,15.1
2018-10-18T05:21:15.864Z,15.1
2018-10-18T05:24:15.674Z,15.2
2018-10-18T05:27:15.392Z,15.2
2018-10-18T05:30:15.692Z,15.2
2018-10-18T05:33:15.276Z,15.2
2018-10-18T05:36:15.080Z,15.1
2018-10-18T05:39:15.590Z,15.2
2018-10-18T05:42:16.018Z,15.2
2018-10-18T05:45:15.943Z,15.2
2018-10-18T05:48:15.396Z,15.2
2018-10-18T05:51:15.038Z,15.2
2018-10-18T05:54:15.654Z,15.2
2018-10-18T05:57:15.905Z,15.1
2018-10-18T06:00:15.471Z,15.1
2018-10-18T06:03:15.296Z,15.0
2018-10-18T06:06:15.896Z,15.0
2018-10-18T06:09:15.657Z,15.0
2018-10-18T06:12:15.775Z,14.9
2018-10-18T06:15:15.269Z,14.9
2018-10-18T06:18:15.908Z,15.0
2018-10-18T06:21:15.460Z,15.0
2018-10-18T06:24:15.988Z,15.0
2018-10-18T06:27:15.514Z,15.1
2018-10-18T06:30:15.027Z,15.1
2018-10-18T06:33:15.610Z,15.2
2018-10-18T06:36:15.982Z,15.4
2018-10-18T06:39:15.522Z,15.5
2018-10-18T06:42:15.104Z,15.7
2018-10-18T06:45:15.588Z,15.8
2018-10-18T06:48:15.090Z,15.9
2018-10-18T06:51:15.675Z,16.0
2018-10-18T06:54:15.343Z,16.2
2018-10-18T06:57:15.199Z,16.3
2018-10-18T07:00:15.859Z,16.4
2018-10-18T07:03:16.157Z,16.5
2018-10-18T07:06:15.702Z,16.6
2018-10-18T07:09:15.332Z,16.7
2018-10-18T07:12:15.950Z,16.9
2018-10-18T07:15:15.492Z,17.0
2018-10-18T07:18:15.133Z,17.1
2018-10-18T07:21:15.696Z,17.3
2018-10-18T07:24:15.799Z,17.4
2018-10-18T07:27:15.317Z,17.5
2018-10-18T07:30:15.623Z,17.7
2018-10-18T07:33:15.138Z,17.8
2018-10-18T07:36:15.549Z,17.9
2018-10-18T07:39:15.307Z,18.1
2018-10-18T07:42:15.859Z,18.2
2018-10-18T07:45:15.428Z,18.4
2018-10-18T07:48:15.057Z,18.6
2018-10-18T07:51:15.740Z,18.8
2018-10-18T07:54:15.474Z,19.0
2018-10-18T07:57:16.159Z,19.3
2018-10-18T08:00:15.740Z,19.6
2018-10-18T08:03:15.970Z,20.1
2018-10-18T08:06:15.327Z,20.6
2018-10-18T08:09:15.652Z,21.1
2018-10-18T08:12:15.169Z,21.7
2018-10-18T08:15:15.725Z,22.6
2018-10-18T08:18:15.411Z,23.7
2018-10-18T08:21:15.921Z,24.8
2018-10-18T08:24:15.252Z,25.9
2018-10-18T08:27:15.890Z,26.9
2018-10-18T08:30:15.470Z,27.5
2018-10-18T08:33:15.796Z,28.2
2018-10-18T08:36:15.302Z,28.8
2018-10-18T08:39:15.821Z,29.0
2018-10-18T08:42:15.409Z,28.6
2018-10-18T08:45:15.269Z,28.8
2018-10-18T08:48:16.065Z,28.9
2018-10-18T08:51:15.470Z,29.4
2018-10-18T08:54:15.858Z,29.4
2018-10-18T08:57:15.916Z,29.9
2018-10-18T09:00:15.439Z,30.1
2018-10-18T09:03:15.784Z,30.7
2018-10-18T09:06:15.544Z,31.1
2018-10-18T09:09:15.240Z,31.0
2018-10-18T09:12:16.031Z,31.3
2018-10-18T09:15:15.402Z,31.3
2018-10-18T09:18:15.921Z,31.4
2018-10-18T09:21:15.213Z,31.7
2018-10-18T09:24:15.581Z,32.0
2018-10-18T09:27:15.901Z,32.5
2018-10-18T09:30:15.665Z,32.6
2018-10-18T09:33:15.363Z,33.0
2018-10-18T09:36:16.014Z,33.5
2018-10-18T09:39:15.325Z,33.8
2018-10-18T09:42:15.955Z,33.9
2018-10-18T09:45:15.596Z,33.7
2018-10-18T09:48:15.295Z,33.9
2018-10-18T09:51:15.590Z,34.0
2018-10-18T09:54:15.146Z,34.6
2018-10-18T09:57:15.918Z,35.1
2018-10-18T10:00:15.442Z,35.2
2018-10-18T10:03:15.938Z,35.8
2018-10-18T10:06:15.624Z,35.4
2018-10-18T10:09:15.421Z,34.8
2018-10-18T10:12:16.056Z,34.3
2018-10-18T10:15:15.825Z,34.3
2018-10-18T10:18:15.864Z,34.0
2018-10-18T10:21:15.244Z,33.6
2018-10-18T10:24:15.806Z,33.7
2018-10-18T10:27:15.656Z,33.9
2018-10-18T10:30:15.596Z,33.9
2018-10-18T10:33:15.418Z,33.9
2018-10-18T10:36:15.255Z,34.2
2018-10-18T10:39:15.473Z,33.9
2018-10-18T10:42:15.303Z,33.9
2018-10-18T10:45:15.963Z,34.4
2018-10-18T10:48:15.962Z,34.3
2018-10-18T10:51:16.040Z,34.4
2018-10-18T10:54:15.754Z,33.9
2018-10-18T10:57:15.556Z,33.2
2018-10-18T11:00:15.387Z,32.9
2018-10-18T11:03:16.066Z,33.0
2018-10-18T11:06:16.029Z,32.8
2018-10-18T11:09:15.383Z,32.2
2018-10-18T11:12:16.011Z,31.5
2018-10-18T11:15:15.353Z,30.9
2018-10-18T11:18:15.764Z,31.0
2018-10-18T11:21:15.908Z,31.2
2018-10-18T11:24:15.337Z,31.3
2018-10-18T11:27:15.511Z,31.4
2018-10-18T11:30:15.608Z,31.1
2018-10-18T11:33:15.572Z,30.4
2018-10-18T11:36:15.474Z,29.8
2018-10-18T11:39:15.690Z,29.3
2018-10-18T11:42:15.791Z,28.8
2018-10-18T11:45:15.795Z,28.4
2018-10-18T11:48:15.417Z,28.2
2018-10-18T11:51:15.114Z,28.1
2018-10-18T11:54:15.253Z,28.2
2018-10-18T11:57:15.755Z,28.0
2018-10-18T12:00:15.207Z,27.7
2018-10-18T12:03:15.706Z,27.9
2018-10-18T12:06:15.260Z,28.0
2018-10-18T12:09:15.691Z,28.0
2018-10-18T12:12:15.435Z,28.2
2018-10-18T12:15:15.965Z,28.3
2018-10-18T12:18:15.710Z,28.2
2018-10-18T12:21:15.059Z,27.9
2018-10-18T12:24:15.621Z,27.9
2018-10-18T12:27:15.324Z,27.9
2018-10-18T12:30:16.103Z,27.8
2018-10-18T12:33:15.629Z,27.7
2018-10-18T12:36:15.030Z,27.5
2018-10-18T12:39:15.535Z,27.4
2018-10-18T12:42:15.591Z,27.0
2018-10-18T12:45:15.077Z,26.6
2018-10-18T12:48:15.912Z,26.3
2018-10-18T12:51:15.889Z,26.0
2018-10-18T12:54:15.586Z,25.7
2018-10-18T12:57:15.501Z,25.4
2018-10-18T13:00:15.198Z,25.3
2018-10-18T13:03:15.953Z,25.3
2018-10-18T13:06:15.651Z,25.3
2018-10-18T13:09:15.269Z,25.4
2018-10-18T13:12:15.651Z,25.5
2018-10-18T13:15:15.146Z,25.4
2018-10-18T13:18:15.691Z,25.5
2018-10-18T13:21:15.200Z,25.5
2018-10-18T13:24:15.219Z,25.6
2018-10-18T13:27:16.038Z,25.6
2018-10-18T13:30:15.632Z,25.7
2018-10-18T13:33:15.333Z,26.1
2018-10-18T13:36:16.088Z,26.2
2018-10-18T13:39:15.892Z,26.4
2018-10-18T13:42:15.534Z,26.2
2018-10-18T13:45:15.099Z,26.1
2018-10-18T13:48:15.831Z,25.9
2018-10-18T13:51:15.388Z,25.7
2018-10-18T13:54:16.072Z,25.6
2018-10-18T13:57:15.919Z,25.4
2018-10-18T14:00:15.658Z,25.3
2018-10-18T14:03:15.752Z,25.1
2018-10-18T14:06:15.337Z,25.0
2018-10-18T14:09:15.974Z,24.9
2018-10-18T14:12:15.478Z,24.9
2018-10-18T14:15:15.999Z,24.8
2018-10-18T14:18:15.828Z,24.8
2018-10-18T14:21:15.365Z,24.7
2018-10-18T14:24:15.861Z,24.7
2018-10-18T14:27:15.354Z,24.5
2018-10-18T14:30:15.846Z,24.3
2018-10-18T14:33:16.033Z,24.2
2018-10-18T14:36:15.513Z,24.0
2018-10-18T14:39:15.184Z,23.8
2018-10-18T14:42:15.846Z,23.8
2018-10-18T14:45:15.603Z,23.7
2018-10-18T14:48:15.100Z,23.7
2018-10-18T14:51:15.786Z,23.7
2018-10-18T14:54:15.275Z,23.5
2018-10-18T14:57:15.903Z,23.4
2018-10-18T15:00:15.322Z,23.3
2018-10-18T15:03:15.989Z,23.2
2018-10-18T15:06:15.451Z,23.0
2018-10-18T15:09:15.823Z,22.9
2018-10-18T15:12:15.247Z,22.8
2018-10-18T15:15:15.707Z,22.7
2018-10-18T15:18:15.415Z,22.7
2018-10-18T15:21:15.863Z,22.7
2018-10-18T15:24:15.214Z,22.7
2018-10-18T15:27:15.801Z,22.7
2018-10-18T15:30:15.560Z,22.6
2018-10-18T15:33:15.158Z,22.5
2018-10-18T15:36:15.708Z,22.5
2018-10-18T15:39:15.747Z,22.4
2018-10-18T15:42:16.072Z,22.3
2018-10-18T15:45:15.976Z,22.2
2018-10-18T15:48:15.701Z,22.1
2018-10-18T15:51:15.540Z,22.0
2018-10-18T15:54:15.414Z,21.9
2018-10-18T15:57:15.189Z,21.7
2018-10-18T16:00:15.995Z,21.6
2018-10-18T16:03:15.498Z,21.5
2018-10-18T16:06:15.337Z,21.5
2018-10-18T16:09:15.080Z,21.4
2018-10-18T16:12:15.823Z,21.4
2018-10-18T16:15:15.305Z,21.4
2018-10-18T16:18:15.907Z,21.4
2018-10-18T16:21:15.488Z,21.3
2018-10-18T16:24:15.991Z,21.3
2018-10-18T16:27:15.480Z,21.2
2018-10-18T16:30:15.278Z,21.1
2018-10-18T16:33:15.406Z,21.1
2018-10-18T16:36:15.110Z,21.0
2018-10-18T16:39:15.966Z,20.9
2018-10-18T16:42:15.637Z,20.9
2018-10-18T16:45:15.191Z,20.8
2018-10-18T16:48:16.014Z,20.8
2018-10-18T16:51:15.550Z,20.7
2018-10-18T16:54:15.309Z,20.6
2018-10-18T16:57:15.302Z,20.5
2018-10-18T17:00:16.503Z,20.5
2018-10-18T17:03:15.144Z,20.4
2018-10-18T17:06:15.687Z,20.4
2018-10-18T17:09:15.869Z,20.3
2018-10-18T17:12:15.691Z,20.2
2018-10-18T17:15:15.271Z,20.2
2018-10-18T17:18:15.803Z,20.2
2018-10-18T17:21:15.473Z,20.1
2018-10-18T17:24:15.240Z,20.1
2018-10-18T17:27:16.009Z,20.0
2018-10-18T17:30:15.833Z,20.0
2018-10-18T17:33:15.816Z,19.9
2018-10-18T17:36:15.495Z,19.9
2018-10-18T17:39:15.244Z,19.9
2018-10-18T17:42:15.759Z,19.9
2018-10-18T17:45:15.405Z,19.8
2018-10-18T17:48:15.234Z,19.8
2018-10-18T17:51:15.735Z,19.8
2018-10-18T17:54:15.499Z,19.7
2018-10-18T17:57:15.219Z,19.6
2018-10-18T18:00:15.998Z,19.6
2018-10-18T18:03:15.421Z,19.5
2018-10-18T18:06:15.484Z,19.5
2018-10-18T18:09:15.496Z,19.5
2018-10-18T18:12:15.144Z,19.4
2018-10-18T18:15:16.082Z,19.4
2018-10-18T18:18:15.769Z,19.4
2018-10-18T18:21:15.485Z,19.3
2018-10-18T18:24:15.040Z,19.3
2018-10-18T18:27:15.982Z,19.2
2018-10-18T18:30:15.225Z,19.2
2018-10-18T18:33:15.934Z,19.1
2018-10-18T18:36:15.603Z,19.1
2018-10-18T18:39:15.324Z,19.1
2018-10-18T18:42:15.402Z,19.0
2018-10-18T18:45:15.297Z,19.0
2018-10-18T18:48:15.305Z,18.9
2018-10-18T18:51:15.787Z,18.9
2018-10-18T18:54:15.979Z,18.8
2018-10-18T18:57:15.663Z,18.7
2018-10-18T19:03:28.614Z,18.6
2018-10-18T19:09:24.124Z,18.6
2018-10-18T19:12:15.575Z,18.5
2018-10-18T19:15:15.238Z,18.5
2018-10-18T19:18:15.597Z,18.5
2018-10-18T19:21:15.625Z,18.4
2018-10-18T19:24:15.699Z,18.4
2018-10-18T19:27:15.313Z,18.3
2018-10-18T19:30:15.826Z,18.3
2018-10-18T19:33:15.447Z,18.3
2018-10-18T19:36:15.148Z,18.2
2018-10-18T19:39:16.231Z,18.2
2018-10-18T19:42:15.290Z,18.2
2018-10-18T19:45:15.087Z,18.1
2018-10-18T19:48:15.447Z,18.1
2018-10-18T19:51:16.026Z,18.1
2018-10-18T19:54:15.754Z,18.0
2018-10-18T19:57:15.836Z,18.0
2018-10-18T20:00:15.611Z,18.0
2018-10-18T20:03:15.166Z,18.0
2018-10-18T20:06:15.794Z,17.9
2018-10-18T20:09:16.200Z,17.9
2018-10-18T20:12:15.643Z,17.9
2018-10-18T20:15:15.910Z,17.8
2018-10-18T20:18:16.110Z,17.8
2018-10-18T20:21:15.640Z,17.8
2018-10-18T20:24:15.370Z,17.7
2018-10-18T20:27:15.645Z,17.7
2018-10-18T20:30:15.245Z,17.6
2018-10-18T20:33:16.082Z,17.6
2018-10-18T20:36:15.943Z,17.6
2018-10-18T20:39:15.599Z,17.6
2018-10-18T20:42:15.270Z,17.5
2018-10-18T20:45:15.743Z,17.5
2018-10-18T20:48:15.181Z,17.5
2018-10-18T20:51:16.086Z,17.5
2018-10-18T20:54:15.864Z,17.5
2018-10-18T20:57:15.659Z,17.4
2018-10-18T21:00:15.488Z,17.4
2018-10-18T21:03:15.420Z,17.4
2018-10-18T21:06:16.013Z,17.4
2018-10-18T21:09:16.231Z,17.3
2018-10-18T21:12:15.930Z,17.3
2018-10-18T21:15:15.664Z,17.3
2018-10-18T21:18:15.445Z,17.3
2018-10-18T21:21:15.920Z,17.2
2018-10-18T21:24:15.527Z,17.2
2018-10-18T21:27:15.207Z,17.2
2018-10-18T21:30:15.599Z,17.1
2018-10-18T21:33:15.311Z,17.1
2018-10-18T21:36:15.012Z,17.1
2018-10-18T21:39:15.724Z,17.0
2018-10-18T21:42:15.062Z,17.0
2018-10-18T21:45:16.006Z,16.9
2018-10-18T21:48:15.683Z,16.9
2018-10-18T21:51:15.527Z,16.9
2018-10-18T21:54:15.263Z,16.9
2018-10-18T21:57:15.635Z,16.8
2018-10-18T22:00:15.073Z,16.8
2018-10-18T22:03:16.120Z,16.8
2018-10-18T22:06:15.604Z,16.8
2018-10-18T22:09:15.110Z,16.8
2018-10-18T22:12:15.698Z,16.7
2018-10-18T22:15:15.191Z,16.7
2018-10-18T22:18:15.364Z,16.7
2018-10-18T22:21:21.844Z,16.6
2018-10-18T22:24:14.996Z,16.6
2018-10-18T22:27:16.098Z,16.6
2018-10-18T22:30:15.039Z,16.5
2018-10-18T22:33:15.135Z,16.5
2018-10-18T22:36:15.248Z,16.5
2018-10-18T22:39:15.199Z,16.5
2018-10-18T22:42:15.987Z,16.5
2018-10-18T22:45:15.566Z,16.5
2018-10-18T22:48:15.434Z,16.5
2018-10-18T22:51:15.171Z,16.5
2018-10-18T22:54:15.226Z,16.4
2018-10-18T22:57:15.114Z,16.4
2018-10-18T23:00:15.172Z,16.4
2018-10-18T23:03:15.124Z,16.4
2018-10-18T23:06:15.608Z,16.3
2018-10-18T23:09:16.326Z,16.3
2018-10-18T23:12:16.499Z,16.3
2018-10-18T23:15:15.949Z,16.3
2018-10-18T23:18:16.959Z,16.2
2018-10-18T23:21:16.361Z,16.2
2018-10-18T23:24:16.144Z,16.2
2018-10-18T23:27:16.303Z,16.2
2018-10-18T23:30:20.583Z,16.2
2018-10-18T23:33:20.887Z,16.1
2018-10-18T23:36:16.245Z,16.1
2018-10-18T23:39:15.977Z,16.1
2018-10-18T23:42:15.568Z,16.1
2018-10-18T23:45:16.664Z,16.0
2018-10-18T23:48:15.827Z,16.0
2018-10-18T23:51:17.133Z,15.9
2018-10-18T23:54:16.479Z,15.9
2018-10-18T23:57:16.180Z,15.8
